Chadwick, Missouri
Current Conditions -  °F | °C
As of 5:55 AM on Thursday 27 Nov 2014 (Local Time) from KFWB Reporting Station
Overcast Overcast  
Wind Chill: 24°   Ceiling: 1600
Heat Index: 30°   Visibility: 10mi
Dew Point: 25°   Wind: 6mph
Humidity: 80%   Direction: 340°NNW
Pressure: 30.45"   Gusts: NA
Location:  36.93°N, 93.06°W
Report Text: KFWB 271155Z AUTO 34005KT 10SM OVC016 M01/M04 A3045 RMK AO2
Loading
Personal Weather Stations






























Interactive Weather Map New forecast layout! Learn more

10-Day Weather Forecast

Advertisements
Track Severe Weather on mobile